Time,TemperatureF,DewpointF,PressureIn,WindDirection,WindDirectionDegrees,WindSpeedMPH,WindSpeedGustMPH,Humidity,HourlyPrecipIn,Conditions,Clouds,dailyrainin,SoftwareType,DateUTC
2013-09-10 00:01:00,66.3,54.2,29.73,North,0,0.0,0.0,65,0.00,,,-99.99,Custom,2013-09-10 07:01:00,
2013-09-10 00:05:00,66.0,54.3,29.74,North,0,0.0,0.0,66,0.00,,,-99.99,Custom,2013-09-10 07:05:00,
2013-09-10 00:11:00,66.0,54.3,29.74,North,0,0.0,0.0,66,0.00,,,-99.99,Custom,2013-09-10 07:11:00,
2013-09-10 00:15:00,65.6,54.4,29.73,North,0,0.0,0.0,67,0.00,,,-99.99,Custom,2013-09-10 07:15:00,
2013-09-10 00:21:00,65.6,54.4,29.73,North,0,0.0,0.0,67,0.00,,,-99.99,Custom,2013-09-10 07:21:00,
2013-09-10 00:25:00,65.2,54.0,29.73,North,0,0.0,0.0,67,0.00,,,-99.99,Custom,2013-09-10 07:25:00,
2013-09-10 00:31:00,65.2,54.0,29.73,North,0,0.0,0.0,67,0.00,,,-99.99,Custom,2013-09-10 07:31:00,
2013-09-10 00:35:00,65.0,53.8,29.73,North,0,0.0,0.0,67,0.00,,,-99.99,Custom,2013-09-10 07:35:00,
2013-09-10 00:41:00,65.0,53.8,29.73,North,0,0.0,0.0,67,0.00,,,-99.99,Custom,2013-09-10 07:41:00,
2013-09-10 00:45:00,64.7,53.5,29.73,North,0,0.0,0.0,67,0.00,,,-99.99,Custom,2013-09-10 07:45:00,
2013-09-10 00:51:00,64.7,53.5,29.73,North,0,0.0,0.0,67,0.00,,,-99.99,Custom,2013-09-10 07:51:00,
2013-09-10 00:55:00,64.4,53.6,29.73,North,0,0.0,1.0,68,0.00,,,-99.99,Custom,2013-09-10 07:55:00,
2013-09-10 01:00:00,64.2,53.4,29.73,North,0,0.0,1.0,68,0.00,,,-99.99,Custom,2013-09-10 08:00:00,
2013-09-10 01:06:00,64.2,53.4,29.73,North,0,0.0,1.0,68,0.00,,,-99.99,Custom,2013-09-10 08:06:00,
2013-09-10 01:10:00,63.9,53.5,29.73,North,0,0.0,0.0,69,0.00,,,-99.99,Custom,2013-09-10 08:10:00,
2013-09-10 01:11:00,63.9,53.5,29.73,North,0,0.0,0.0,69,0.00,,,-99.99,Custom,2013-09-10 08:11:00,
2013-09-10 01:15:00,63.7,53.4,29.74,North,0,0.0,1.0,69,0.00,,,-99.99,Custom,2013-09-10 08:15:00,
2013-09-10 01:21:00,63.7,53.4,29.74,North,0,0.0,1.0,69,0.00,,,-99.99,Custom,2013-09-10 08:21:00,
2013-09-10 01:25:00,63.4,53.1,29.73,North,0,0.0,0.0,69,0.00,,,-99.99,Custom,2013-09-10 08:25:00,
2013-09-10 01:27:00,63.4,53.1,29.73,North,0,0.0,0.0,69,0.00,,,-99.99,Custom,2013-09-10 08:27:00,
2013-09-10 01:30:00,63.3,53.0,29.73,North,0,0.0,0.0,69,0.00,,,-99.99,Custom,2013-09-10 08:30:00,
2013-09-10 01:36:00,63.3,53.0,29.73,North,0,0.0,0.0,69,0.00,,,-99.99,Custom,2013-09-10 08:36:00,
2013-09-10 01:40:00,63.0,53.8,29.74,North,0,0.0,0.0,72,0.00,,,-99.99,Custom,2013-09-10 08:40:00,
2013-09-10 01:46:00,63.0,53.8,29.74,North,0,0.0,0.0,72,0.00,,,-99.99,Custom,2013-09-10 08:46:00,
2013-09-10 01:50:00,62.7,52.8,29.74,North,0,0.0,0.0,70,0.00,,,-99.99,Custom,2013-09-10 08:50:00,
2013-09-10 01:55:00,62.5,52.6,29.74,North,0,0.0,0.0,70,0.00,,,-99.99,Custom,2013-09-10 08:55:00,
2013-09-10 01:56:00,62.7,52.8,29.74,North,0,0.0,0.0,70,0.00,,,-99.99,Custom,2013-09-10 08:56:00,
2013-09-10 02:00:00,62.4,52.1,29.74,North,0,0.0,0.0,69,0.00,,,-99.99,Custom,2013-09-10 09:00:00,
2013-09-10 02:05:00,62.2,52.3,29.74,North,0,0.0,0.0,70,0.00,,,-99.99,Custom,2013-09-10 09:05:00,
2013-09-10 02:06:00,62.4,52.1,29.74,North,0,0.0,0.0,69,0.00,,,-99.99,Custom,2013-09-10 09:06:00,
2013-09-10 02:10:00,62.1,52.2,29.74,North,0,0.0,0.0,70,0.00,,,-99.99,Custom,2013-09-10 09:10:00,
2013-09-10 02:16:00,62.1,52.2,29.74,North,0,0.0,0.0,70,0.00,,,-99.99,Custom,2013-09-10 09:16:00,
2013-09-10 02:20:00,61.8,51.1,29.74,North,0,0.0,0.0,68,0.00,,,-99.99,Custom,2013-09-10 09:20:00,
2013-09-10 02:26:00,61.8,51.1,29.74,North,0,0.0,0.0,68,0.00,,,-99.99,Custom,2013-09-10 09:26:00,
2013-09-10 02:30:00,61.4,50.8,29.73,North,0,0.0,0.0,68,0.00,,,-99.99,Custom,2013-09-10 09:30:00,
2013-09-10 02:36:00,61.4,50.8,29.73,North,0,0.0,0.0,68,0.00,,,-99.99,Custom,2013-09-10 09:36:00,
2013-09-10 02:40:00,61.2,50.6,29.74,North,0,0.0,0.0,68,0.00,,,-99.99,Custom,2013-09-10 09:40:00,
2013-09-10 02:46:00,61.2,50.6,29.74,North,0,0.0,0.0,68,0.00,,,-99.99,Custom,2013-09-10 09:46:00,
2013-09-10 02:50:00,60.9,49.9,29.73,North,0,0.0,0.0,67,0.00,,,-99.99,Custom,2013-09-10 09:50:00,
2013-09-10 02:56:00,60.9,49.9,29.73,North,0,0.0,0.0,67,0.00,,,-99.99,Custom,2013-09-10 09:56:00,
2013-09-10 03:00:00,60.6,49.6,29.73,North,0,0.0,0.0,67,0.00,,,-99.99,Custom,2013-09-10 10:00:00,
2013-09-10 03:06:00,60.6,49.6,29.73,North,0,0.0,0.0,67,0.00,,,-99.99,Custom,2013-09-10 10:06:00,
2013-09-10 03:10:00,60.4,48.2,29.73,North,0,0.0,0.0,64,0.00,,,-99.99,Custom,2013-09-10 10:10:00,
2013-09-10 03:15:00,60.3,47.7,29.73,North,0,0.0,0.0,63,0.00,,,-99.99,Custom,2013-09-10 10:15:00,
2013-09-10 03:16:00,60.4,48.2,29.73,North,0,0.0,0.0,64,0.00,,,-99.99,Custom,2013-09-10 10:16:00,
2013-09-10 03:20:00,60.2,48.8,29.73,North,0,0.0,0.0,66,0.00,,,-99.99,Custom,2013-09-10 10:20:00,
2013-09-10 03:26:00,60.2,48.8,29.73,North,0,0.0,0.0,66,0.00,,,-99.99,Custom,2013-09-10 10:26:00,
2013-09-10 03:30:00,60.0,50.2,29.74,North,0,0.0,0.0,70,0.00,,,-99.99,Custom,2013-09-10 10:30:00,
2013-09-10 03:35:00,59.9,50.1,29.74,North,0,0.0,0.0,70,0.00,,,-99.99,Custom,2013-09-10 10:35:00,
2013-09-10 03:36:00,60.0,50.2,29.74,North,0,0.0,0.0,70,0.00,,,-99.99,Custom,2013-09-10 10:36:00,
2013-09-10 03:40:00,59.8,50.0,29.74,North,0,0.0,0.0,70,0.00,,,-99.99,Custom,2013-09-10 10:40:00,
2013-09-10 03:46:00,59.8,50.0,29.74,North,0,0.0,0.0,70,0.00,,,-99.99,Custom,2013-09-10 10:46:00,
2013-09-10 03:50:00,59.7,49.9,29.74,North,0,0.0,0.0,70,0.00,,,-99.99,Custom,2013-09-10 10:50:00,
2013-09-10 03:55:00,59.7,49.9,29.74,North,0,0.0,0.0,70,0.00,,,-99.99,Custom,2013-09-10 10:55:00,
2013-09-10 03:56:00,59.7,49.9,29.74,North,0,0.0,0.0,70,0.00,,,-99.99,Custom,2013-09-10 10:56:00,
2013-09-10 04:00:00,59.7,49.9,29.74,North,0,0.0,0.0,70,0.00,,,-99.99,Custom,2013-09-10 11:00:00,
2013-09-10 04:06:00,59.7,49.9,29.74,North,0,0.0,0.0,70,0.00,,,-99.99,Custom,2013-09-10 11:06:00,
2013-09-10 04:10:00,59.6,49.8,29.74,North,0,0.0,2.0,70,0.00,,,-99.99,Custom,2013-09-10 11:10:00,
2013-09-10 04:11:00,59.6,49.8,29.74,North,0,0.0,2.0,70,0.00,,,-99.99,Custom,2013-09-10 11:11:00,
2013-09-10 04:15:00,59.6,50.2,29.74,North,0,1.0,3.0,71,0.00,,,-99.99,Custom,2013-09-10 11:15:00,
2013-09-10 04:21:00,59.6,50.2,29.74,North,0,1.0,3.0,71,0.00,,,-99.99,Custom,2013-09-10 11:21:00,
2013-09-10 04:25:00,59.5,50.1,29.74,SSE,158,2.0,4.0,71,0.00,,,-99.99,Custom,2013-09-10 11:25:00,
2013-09-10 04:26:00,59.5,50.1,29.74,SSE,158,2.0,4.0,71,0.00,,,-99.99,Custom,2013-09-10 11:26:00,
2013-09-10 04:30:00,59.4,50.8,29.74,SSE,158,2.0,3.0,73,0.00,,,-99.99,Custom,2013-09-10 11:30:00,
2013-09-10 04:36:00,59.4,50.8,29.74,SSE,158,2.0,3.0,73,0.00,,,-99.99,Custom,2013-09-10 11:36:00,
2013-09-10 04:40:00,59.1,50.5,29.74,SSE,158,1.0,2.0,73,0.00,,,-99.99,Custom,2013-09-10 11:40:00,
2013-09-10 04:46:00,59.1,50.5,29.74,SSE,158,1.0,2.0,73,0.00,,,-99.99,Custom,2013-09-10 11:46:00,
2013-09-10 04:50:00,58.8,50.2,29.74,SSE,158,0.0,2.0,73,0.00,,,-99.99,Custom,2013-09-10 11:50:00,
2013-09-10 04:56:00,58.8,50.2,29.74,SSE,158,0.0,2.0,73,0.00,,,-99.99,Custom,2013-09-10 11:56:00,
2013-09-10 05:00:00,58.6,50.3,29.75,SSE,158,1.0,3.0,74,0.00,,,-99.99,Custom,2013-09-10 12:00:00,
2013-09-10 05:06:00,58.6,50.3,29.75,SSE,158,1.0,3.0,74,0.00,,,-99.99,Custom,2013-09-10 12:06:00,
2013-09-10 05:10:00,58.4,50.5,29.75,SSE,158,0.0,2.0,75,0.00,,,-99.99,Custom,2013-09-10 12:10:00,
2013-09-10 05:16:00,58.4,50.5,29.75,SSE,158,0.0,2.0,75,0.00,,,-99.99,Custom,2013-09-10 12:16:00,
2013-09-10 05:20:00,58.3,50.4,29.75,SSE,158,0.0,2.0,75,0.00,,,-99.99,Custom,2013-09-10 12:20:00,
2013-09-10 05:26:00,58.3,50.4,29.75,SSE,158,0.0,2.0,75,0.00,,,-99.99,Custom,2013-09-10 12:26:00,
2013-09-10 05:30:00,58.1,50.2,29.76,SSE,158,1.0,3.0,75,0.00,,,-99.99,Custom,2013-09-10 12:30:00,
2013-09-10 05:36:00,58.1,50.2,29.76,SSE,158,1.0,3.0,75,0.00,,,-99.99,Custom,2013-09-10 12:36:00,
2013-09-10 05:40:00,58.0,50.1,29.75,SSE,158,1.0,2.0,75,0.00,,,-99.99,Custom,2013-09-10 12:40:00,
2013-09-10 05:46:00,58.0,50.1,29.75,SSE,158,1.0,2.0,75,0.00,,,-99.99,Custom,2013-09-10 12:46:00,
2013-09-10 05:50:00,57.8,49.2,29.76,ESE,113,1.0,4.0,73,0.00,,,-99.99,Custom,2013-09-10 12:50:00,
2013-09-10 05:56:00,57.8,49.2,29.76,ESE,113,1.0,4.0,73,0.00,,,-99.99,Custom,2013-09-10 12:56:00,
2013-09-10 06:00:00,57.7,49.1,29.76,ESE,113,1.0,3.0,73,0.00,,,-99.99,Custom,2013-09-10 13:00:00,
2013-09-10 06:05:00,57.6,49.0,29.76,ESE,113,1.0,3.0,73,0.00,,,-99.99,Custom,2013-09-10 13:05:00,
2013-09-10 06:06:00,57.7,49.1,29.76,ESE,113,1.0,3.0,73,0.00,,,-99.99,Custom,2013-09-10 13:06:00,
2013-09-10 06:10:00,57.5,50.4,29.77,ESE,113,1.0,3.0,77,0.00,,,-99.99,Custom,2013-09-10 13:10:00,
2013-09-10 06:16:00,57.5,50.4,29.77,ESE,113,1.0,3.0,77,0.00,,,-99.99,Custom,2013-09-10 13:16:00,
2013-09-10 06:20:00,57.4,50.3,29.77,SE,135,1.0,3.0,77,0.00,,,-99.99,Custom,2013-09-10 13:20:00,
2013-09-10 06:25:00,57.4,49.9,29.77,SE,135,1.0,4.0,76,0.00,,,-99.99,Custom,2013-09-10 13:25:00,
2013-09-10 06:26:00,57.4,50.3,29.77,SE,135,1.0,3.0,77,0.00,,,-99.99,Custom,2013-09-10 13:26:00,
2013-09-10 06:30:00,57.3,49.8,29.77,ESE,113,1.0,4.0,76,0.00,,,-99.99,Custom,2013-09-10 13:30:00,
2013-09-10 06:36:00,57.3,49.8,29.77,ESE,113,1.0,4.0,76,0.00,,,-99.99,Custom,2013-09-10 13:36:00,
2013-09-10 06:40:00,57.2,50.1,29.78,East,90,1.0,2.0,77,0.00,,,-99.99,Custom,2013-09-10 13:40:00,
2013-09-10 06:46:00,57.2,50.1,29.78,East,90,1.0,2.0,77,0.00,,,-99.99,Custom,2013-09-10 13:46:00,
2013-09-10 06:50:00,56.9,49.4,29.78,East,90,0.0,2.0,76,0.00,,,-99.99,Custom,2013-09-10 13:50:00,
2013-09-10 06:52:00,56.9,49.4,29.78,East,90,0.0,2.0,76,0.00,,,-99.99,Custom,2013-09-10 13:52:00,
2013-09-10 06:55:00,56.9,50.1,29.78,ESE,113,1.0,4.0,78,0.00,,,-99.99,Custom,2013-09-10 13:55:00,
2013-09-10 07:00:00,56.9,50.1,29.78,ESE,113,1.0,3.0,78,0.00,,,-99.99,Custom,2013-09-10 14:00:00,
2013-09-10 07:01:00,56.9,50.1,29.78,ESE,113,1.0,4.0,78,0.00,,,-99.99,Custom,2013-09-10 14:01:00,
2013-09-10 07:05:00,56.9,50.1,29.78,SSE,158,1.0,3.0,78,0.00,,,-99.99,Custom,2013-09-10 14:05:00,
2013-09-10 07:11:00,56.9,50.1,29.78,SSE,158,1.0,3.0,78,0.00,,,-99.99,Custom,2013-09-10 14:11:00,
2013-09-10 07:15:00,56.9,50.5,29.79,SSE,158,1.0,2.0,79,0.00,,,-99.99,Custom,2013-09-10 14:15:00,
2013-09-10 07:16:00,56.9,50.5,29.79,SSE,158,1.0,2.0,79,0.00,,,-99.99,Custom,2013-09-10 14:16:00,
2013-09-10 07:20:00,57.0,50.6,29.78,SSE,158,1.0,3.0,79,0.00,,,-99.99,Custom,2013-09-10 14:20:00,
2013-09-10 07:26:00,57.0,50.6,29.78,SSE,158,1.0,3.0,79,0.00,,,-99.99,Custom,2013-09-10 14:26:00,
2013-09-10 07:30:00,57.1,50.7,29.79,SSE,158,1.0,3.0,79,0.00,,,-99.99,Custom,2013-09-10 14:30:00,
2013-09-10 07:36:00,57.1,50.7,29.79,SSE,158,1.0,3.0,79,0.00,,,-99.99,Custom,2013-09-10 14:36:00,
2013-09-10 07:40:00,57.3,50.5,29.80,SE,135,1.0,4.0,78,0.00,,,-99.99,Custom,2013-09-10 14:40:00,
2013-09-10 07:46:00,57.3,50.5,29.80,SE,135,1.0,4.0,78,0.00,,,-99.99,Custom,2013-09-10 14:46:00,
2013-09-10 07:50:00,57.6,50.8,29.79,SE,135,1.0,4.0,78,0.00,,,-99.99,Custom,2013-09-10 14:50:00,
2013-09-10 07:56:00,57.6,50.8,29.79,SE,135,1.0,4.0,78,0.00,,,-99.99,Custom,2013-09-10 14:56:00,
2013-09-10 08:00:00,57.8,51.0,29.80,SE,135,1.0,4.0,78,0.00,,,-99.99,Custom,2013-09-10 15:00:00,
2013-09-10 08:05:00,58.1,51.3,29.80,SE,135,1.0,2.0,78,0.00,,,-99.99,Custom,2013-09-10 15:05:00,
2013-09-10 08:06:00,57.8,51.0,29.80,SE,135,1.0,4.0,78,0.00,,,-99.99,Custom,2013-09-10 15:06:00,
2013-09-10 08:10:00,58.4,51.2,29.80,ENE,68,1.0,3.0,77,0.00,,,-99.99,Custom,2013-09-10 15:10:00,
2013-09-10 08:11:00,58.1,51.3,29.80,SE,135,1.0,2.0,78,0.00,,,-99.99,Custom,2013-09-10 15:11:00,
2013-09-10 08:20:00,59.0,51.1,29.80,SSE,158,2.0,4.0,75,0.00,,,-99.99,Custom,2013-09-10 15:20:00,
2013-09-10 08:26:00,59.0,51.1,29.80,SSE,158,2.0,4.0,75,0.00,,,-99.99,Custom,2013-09-10 15:26:00,
2013-09-10 08:30:00,59.5,50.9,29.81,SE,135,1.0,4.0,73,0.00,,,-99.99,Custom,2013-09-10 15:30:00,
2013-09-10 08:35:00,59.9,51.2,29.81,East,90,2.0,5.0,73,0.00,,,-99.99,Custom,2013-09-10 15:35:00,
2013-09-10 08:36:00,59.5,50.9,29.81,SE,135,1.0,4.0,73,0.00,,,-99.99,Custom,2013-09-10 15:36:00,
2013-09-10 08:40:00,60.2,51.2,29.81,NE,45,1.0,3.0,72,0.00,,,-99.99,Custom,2013-09-10 15:40:00,
2013-09-10 08:46:00,60.2,51.2,29.81,NE,45,1.0,3.0,72,0.00,,,-99.99,Custom,2013-09-10 15:46:00,
2013-09-10 08:50:00,61.0,51.9,29.81,ESE,113,2.0,4.0,72,0.00,,,-99.99,Custom,2013-09-10 15:50:00,
2013-09-10 08:56:00,61.0,51.9,29.81,ESE,113,2.0,4.0,72,0.00,,,-99.99,Custom,2013-09-10 15:56:00,
2013-09-10 09:00:00,63.1,50.3,29.81,SE,135,2.0,6.0,63,0.00,,,-99.99,Custom,2013-09-10 16:00:00,
2013-09-10 09:06:00,63.1,50.3,29.81,SE,135,2.0,6.0,63,0.00,,,-99.99,Custom,2013-09-10 16:06:00,
2013-09-10 09:10:00,64.1,52.1,29.81,SSE,158,2.0,5.0,65,0.00,,,-99.99,Custom,2013-09-10 16:10:00,
2013-09-10 09:16:00,64.1,52.1,29.81,SSE,158,2.0,5.0,65,0.00,,,-99.99,Custom,2013-09-10 16:16:00,
2013-09-10 09:20:00,63.5,52.0,29.81,SSE,158,2.0,7.0,66,0.00,,,-99.99,Custom,2013-09-10 16:20:00,
2013-09-10 09:26:00,63.5,52.0,29.81,SSE,158,2.0,7.0,66,0.00,,,-99.99,Custom,2013-09-10 16:26:00,
2013-09-10 09:30:00,63.8,51.8,29.81,SSE,158,2.0,6.0,65,0.00,,,-99.99,Custom,2013-09-10 16:30:00,
2013-09-10 09:36:00,63.8,51.8,29.81,SSE,158,2.0,6.0,65,0.00,,,-99.99,Custom,2013-09-10 16:36:00,
2013-09-10 09:40:00,64.9,50.7,29.81,SSE,158,2.0,6.0,60,0.00,,,-99.99,Custom,2013-09-10 16:40:00,
2013-09-10 09:45:00,65.9,53.4,29.81,SSE,158,2.0,5.0,64,0.00,,,-99.99,Custom,2013-09-10 16:45:00,
2013-09-10 09:46:00,64.9,50.7,29.81,SSE,158,2.0,6.0,60,0.00,,,-99.99,Custom,2013-09-10 16:46:00,
2013-09-10 09:50:00,67.3,53.8,29.81,East,90,1.0,5.0,62,0.00,,,-99.99,Custom,2013-09-10 16:50:00,
2013-09-10 09:51:00,65.9,53.4,29.81,SSE,158,2.0,5.0,64,0.00,,,-99.99,Custom,2013-09-10 16:51:00,
2013-09-10 09:55:00,69.4,54.0,29.81,SE,135,1.0,4.0,58,0.00,,,-99.99,Custom,2013-09-10 16:55:00,
2013-09-10 10:01:00,69.4,54.0,29.81,SE,135,1.0,4.0,58,0.00,,,-99.99,Custom,2013-09-10 17:01:00,
2013-09-10 10:05:00,74.8,51.5,29.81,SE,135,2.0,4.0,44,0.00,,,-99.99,Custom,2013-09-10 17:05:00,
2013-09-10 10:11:00,74.8,51.5,29.81,SE,135,2.0,4.0,44,0.00,,,-99.99,Custom,2013-09-10 17:11:00,
2013-09-10 10:15:00,73.7,56.0,29.81,SSE,158,2.0,6.0,54,0.00,,,-99.99,Custom,2013-09-10 17:15:00,
2013-09-10 10:21:00,73.7,56.0,29.81,SSE,158,2.0,6.0,54,0.00,,,-99.99,Custom,2013-09-10 17:21:00,
2013-09-10 10:25:00,72.4,55.8,29.81,ENE,68,1.0,4.0,56,0.00,,,-99.99,Custom,2013-09-10 17:25:00,
2013-09-10 10:31:00,72.4,55.8,29.81,ENE,68,1.0,4.0,56,0.00,,,-99.99,Custom,2013-09-10 17:31:00,
2013-09-10 10:35:00,73.4,55.2,29.81,NNE,23,1.0,5.0,53,0.00,,,-99.99,Custom,2013-09-10 17:35:00,
2013-09-10 10:41:00,73.4,55.2,29.81,NNE,23,1.0,5.0,53,0.00,,,-99.99,Custom,2013-09-10 17:41:00,
2013-09-10 10:45:00,74.0,56.3,29.81,ESE,113,1.0,3.0,54,0.00,,,-99.99,Custom,2013-09-10 17:45:00,
2013-09-10 10:51:00,74.0,56.3,29.81,ESE,113,1.0,3.0,54,0.00,,,-99.99,Custom,2013-09-10 17:51:00,
2013-09-10 10:55:00,76.3,52.8,29.81,ESE,113,2.0,6.0,44,0.00,,,-99.99,Custom,2013-09-10 17:55:00,
2013-09-10 11:01:00,76.3,52.8,29.81,ESE,113,2.0,6.0,44,0.00,,,-99.99,Custom,2013-09-10 18:01:00,
2013-09-10 11:05:00,76.4,56.4,29.80,East,90,1.0,3.0,50,0.00,,,-99.99,Custom,2013-09-10 18:05:00,
2013-09-10 11:06:00,76.4,56.4,29.80,East,90,1.0,3.0,50,0.00,,,-99.99,Custom,2013-09-10 18:06:00,
2013-09-10 11:10:00,76.7,57.2,29.80,SE,135,2.0,5.0,51,0.00,,,-99.99,Custom,2013-09-10 18:10:00,
2013-09-10 11:15:00,77.8,57.7,29.80,SE,135,2.0,4.0,50,0.00,,,-99.99,Custom,2013-09-10 18:15:00,
2013-09-10 11:16:00,76.7,57.2,29.80,SE,135,2.0,5.0,51,0.00,,,-99.99,Custom,2013-09-10 18:16:00,
2013-09-10 11:20:00,79.7,56.5,29.80,SE,135,1.0,5.0,45,0.00,,,-99.99,Custom,2013-09-10 18:20:00,
2013-09-10 11:26:00,79.7,56.5,29.80,SE,135,1.0,5.0,45,0.00,,,-99.99,Custom,2013-09-10 18:26:00,
2013-09-10 11:30:00,84.2,55.9,29.80,SE,135,1.0,4.0,38,0.00,,,-99.99,Custom,2013-09-10 18:30:00,
2013-09-10 11:36:00,84.2,55.9,29.80,SE,135,1.0,4.0,38,0.00,,,-99.99,Custom,2013-09-10 18:36:00,
2013-09-10 11:40:00,86.6,56.5,29.80,NNW,338,1.0,3.0,36,0.00,,,-99.99,Custom,2013-09-10 18:40:00,
2013-09-10 11:46:00,86.6,56.5,29.80,NNW,338,1.0,3.0,36,0.00,,,-99.99,Custom,2013-09-10 18:46:00,
2013-09-10 11:50:00,85.7,57.2,29.80,SE,135,2.0,4.0,38,0.00,,,-99.99,Custom,2013-09-10 18:50:00,
2013-09-10 11:56:00,85.7,57.2,29.80,SE,135,2.0,4.0,38,0.00,,,-99.99,Custom,2013-09-10 18:56:00,
2013-09-10 12:00:00,83.0,58.2,29.80,ESE,113,1.0,4.0,43,0.00,,,-99.99,Custom,2013-09-10 19:00:00,
2013-09-10 12:06:00,83.0,58.2,29.80,ESE,113,1.0,4.0,43,0.00,,,-99.99,Custom,2013-09-10 19:06:00,
2013-09-10 12:10:00,81.8,57.8,29.80,ESE,113,2.0,4.0,44,0.00,,,-99.99,Custom,2013-09-10 19:10:00,
2013-09-10 12:16:00,81.8,57.8,29.80,ESE,113,2.0,4.0,44,0.00,,,-99.99,Custom,2013-09-10 19:16:00,
2013-09-10 12:20:00,83.6,57.4,29.80,ESE,113,1.0,4.0,41,0.00,,,-99.99,Custom,2013-09-10 19:20:00,
2013-09-10 12:26:00,83.6,57.4,29.80,ESE,113,1.0,4.0,41,0.00,,,-99.99,Custom,2013-09-10 19:26:00,
2013-09-10 12:30:00,84.1,58.6,29.80,South,180,2.0,5.0,42,0.00,,,-99.99,Custom,2013-09-10 19:30:00,
2013-09-10 12:36:00,84.1,58.6,29.80,South,180,2.0,5.0,42,0.00,,,-99.99,Custom,2013-09-10 19:36:00,
2013-09-10 12:40:00,82.9,58.8,29.80,ENE,68,1.0,4.0,44,0.00,,,-99.99,Custom,2013-09-10 19:40:00,
2013-09-10 12:45:00,82.9,58.1,29.80,East,90,1.0,3.0,43,0.00,,,-99.99,Custom,2013-09-10 19:45:00,
2013-09-10 12:46:00,82.9,58.8,29.80,ENE,68,1.0,4.0,44,0.00,,,-99.99,Custom,2013-09-10 19:46:00,
2013-09-10 12:50:00,83.2,58.4,29.80,SE,135,2.0,4.0,43,0.00,,,-99.99,Custom,2013-09-10 19:50:00,
2013-09-10 12:56:00,83.2,58.4,29.80,SE,135,2.0,4.0,43,0.00,,,-99.99,Custom,2013-09-10 19:56:00,
2013-09-10 13:00:00,83.7,58.2,29.79,SSE,158,3.0,5.0,42,0.00,,,-99.99,Custom,2013-09-10 20:00:00,
2013-09-10 13:06:00,83.7,58.2,29.79,SSE,158,3.0,5.0,42,0.00,,,-99.99,Custom,2013-09-10 20:06:00,
2013-09-10 13:10:00,83.8,58.3,29.80,SSE,158,2.0,5.0,42,0.00,,,-99.99,Custom,2013-09-10 20:10:00,
2013-09-10 13:16:00,83.8,58.3,29.80,SSE,158,2.0,5.0,42,0.00,,,-99.99,Custom,2013-09-10 20:16:00,
2013-09-10 13:20:00,84.1,58.6,29.79,NNE,23,2.0,4.0,42,0.00,,,-99.99,Custom,2013-09-10 20:20:00,
2013-09-10 13:26:00,84.1,58.6,29.79,NNE,23,2.0,4.0,42,0.00,,,-99.99,Custom,2013-09-10 20:26:00,
2013-09-10 13:30:00,83.7,58.2,29.79,ESE,113,2.0,4.0,42,0.00,,,-99.99,Custom,2013-09-10 20:30:00,
2013-09-10 13:31:00,83.7,58.2,29.79,ESE,113,2.0,4.0,42,0.00,,,-99.99,Custom,2013-09-10 20:31:00,
2013-09-10 13:35:00,84.0,58.5,29.79,ESE,113,2.0,4.0,42,0.00,,,-99.99,Custom,2013-09-10 20:35:00,
2013-09-10 13:40:00,84.1,59.2,29.79,NE,45,1.0,3.0,43,0.00,,,-99.99,Custom,2013-09-10 20:40:00,
2013-09-10 13:45:00,83.9,58.4,29.79,SSE,158,1.0,4.0,42,0.00,,,-99.99,Custom,2013-09-10 20:45:00,
2013-09-10 13:46:00,84.1,59.2,29.79,NE,45,1.0,3.0,43,0.00,,,-99.99,Custom,2013-09-10 20:46:00,
2013-09-10 13:50:00,84.1,58.6,29.78,SE,135,2.0,3.0,42,0.00,,,-99.99,Custom,2013-09-10 20:50:00,
2013-09-10 13:56:00,84.1,58.6,29.78,SE,135,2.0,3.0,42,0.00,,,-99.99,Custom,2013-09-10 20:56:00,
2013-09-10 14:00:00,84.1,57.9,29.78,NNE,23,2.0,6.0,41,0.00,,,-99.99,Custom,2013-09-10 21:00:00,
2013-09-10 14:06:00,84.1,57.9,29.78,NNE,23,2.0,6.0,41,0.00,,,-99.99,Custom,2013-09-10 21:06:00,
2013-09-10 14:10:00,84.3,58.1,29.78,NNE,23,2.0,4.0,41,0.00,,,-99.99,Custom,2013-09-10 21:10:00,
2013-09-10 14:16:00,84.3,58.1,29.78,NNE,23,2.0,4.0,41,0.00,,,-99.99,Custom,2013-09-10 21:16:00,
2013-09-10 14:20:00,84.2,58.0,29.78,North,0,2.0,6.0,41,0.00,,,-99.99,Custom,2013-09-10 21:20:00,
2013-09-10 14:26:00,84.2,58.0,29.78,North,0,2.0,6.0,41,0.00,,,-99.99,Custom,2013-09-10 21:26:00,
2013-09-10 14:30:00,84.1,57.2,29.78,North,0,3.0,7.0,40,0.00,,,-99.99,Custom,2013-09-10 21:30:00,
2013-09-10 14:36:00,84.1,57.2,29.78,North,0,3.0,7.0,40,0.00,,,-99.99,Custom,2013-09-10 21:36:00,
2013-09-10 14:40:00,84.2,56.6,29.78,North,0,3.0,5.0,39,0.00,,,-99.99,Custom,2013-09-10 21:40:00,
2013-09-10 14:46:00,84.2,56.6,29.78,North,0,3.0,5.0,39,0.00,,,-99.99,Custom,2013-09-10 21:46:00,
2013-09-10 14:50:00,84.2,57.3,29.78,North,0,3.0,7.0,40,0.00,,,-99.99,Custom,2013-09-10 21:50:00,
2013-09-10 14:56:00,84.2,57.3,29.78,North,0,3.0,7.0,40,0.00,,,-99.99,Custom,2013-09-10 21:56:00,
2013-09-10 15:00:00,83.9,57.0,29.77,North,0,3.0,7.0,40,0.00,,,-99.99,Custom,2013-09-10 22:00:00,
2013-09-10 15:05:00,83.7,56.8,29.77,North,0,3.0,6.0,40,0.00,,,-99.99,Custom,2013-09-10 22:05:00,
2013-09-10 15:06:00,83.9,57.0,29.77,North,0,3.0,7.0,40,0.00,,,-99.99,Custom,2013-09-10 22:06:00,
2013-09-10 15:10:00,83.7,56.8,29.78,North,0,2.0,6.0,40,0.00,,,-99.99,Custom,2013-09-10 22:10:00,
2013-09-10 15:12:00,83.7,56.8,29.77,North,0,3.0,6.0,40,0.00,,,-99.99,Custom,2013-09-10 22:12:00,
2013-09-10 15:15:00,83.6,56.8,29.78,North,0,2.0,6.0,40,0.00,,,-99.99,Custom,2013-09-10 22:15:00,
2013-09-10 15:21:00,83.6,56.8,29.78,North,0,2.0,6.0,40,0.00,,,-99.99,Custom,2013-09-10 22:21:00,
2013-09-10 15:25:00,83.6,57.4,29.78,North,0,3.0,7.0,41,0.00,,,-99.99,Custom,2013-09-10 22:25:00,
2013-09-10 15:31:00,83.6,57.4,29.78,North,0,3.0,7.0,41,0.00,,,-99.99,Custom,2013-09-10 22:31:00,
2013-09-10 15:35:00,83.3,56.5,29.77,North,0,2.0,6.0,40,0.00,,,-99.99,Custom,2013-09-10 22:35:00,
2013-09-10 15:41:00,83.3,56.5,29.77,North,0,2.0,6.0,40,0.00,,,-99.99,Custom,2013-09-10 22:41:00,
2013-09-10 15:45:00,83.2,57.1,29.77,North,0,2.0,5.0,41,0.00,,,-99.99,Custom,2013-09-10 22:45:00,
2013-09-10 15:51:00,83.2,57.1,29.77,North,0,2.0,5.0,41,0.00,,,-99.99,Custom,2013-09-10 22:51:00,
2013-09-10 15:55:00,83.2,57.1,29.77,North,0,1.0,4.0,41,0.00,,,-99.99,Custom,2013-09-10 22:55:00,
2013-09-10 16:01:00,83.2,57.1,29.77,North,0,1.0,4.0,41,0.00,,,-99.99,Custom,2013-09-10 23:01:00,
2013-09-10 16:05:00,83.2,56.4,29.77,North,0,2.0,5.0,40,0.00,,,-99.99,Custom,2013-09-10 23:05:00,
2013-09-10 16:11:00,83.2,56.4,29.77,North,0,2.0,5.0,40,0.00,,,-99.99,Custom,2013-09-10 23:11:00,
2013-09-10 16:15:00,83.1,57.0,29.77,North,0,2.0,5.0,41,0.00,,,-99.99,Custom,2013-09-10 23:15:00,
2013-09-10 16:21:00,83.1,57.0,29.77,North,0,2.0,5.0,41,0.00,,,-99.99,Custom,2013-09-10 23:21:00,
2013-09-10 16:25:00,83.1,57.0,29.77,North,0,3.0,6.0,41,0.00,,,-99.99,Custom,2013-09-10 23:25:00,
2013-09-10 16:31:00,83.1,57.0,29.77,North,0,3.0,6.0,41,0.00,,,-99.99,Custom,2013-09-10 23:31:00,
2013-09-10 16:35:00,83.1,57.0,29.77,North,0,1.0,4.0,41,0.00,,,-99.99,Custom,2013-09-10 23:35:00,
2013-09-10 16:41:00,83.1,57.0,29.77,North,0,1.0,4.0,41,0.00,,,-99.99,Custom,2013-09-10 23:41:00,
2013-09-10 16:45:00,82.8,56.7,29.77,ESE,113,2.0,6.0,41,0.00,,,-99.99,Custom,2013-09-10 23:45:00,
2013-09-10 16:46:00,82.8,56.7,29.77,ESE,113,2.0,6.0,41,0.00,,,-99.99,Custom,2013-09-10 23:46:00,
2013-09-10 16:50:00,82.6,56.5,29.77,ESE,113,2.0,4.0,41,0.00,,,-99.99,Custom,2013-09-10 23:50:00,
2013-09-10 16:56:00,82.6,56.5,29.77,ESE,113,2.0,4.0,41,0.00,,,-99.99,Custom,2013-09-10 23:56:00,
2013-09-10 17:00:00,82.2,56.2,29.77,SE,135,2.0,5.0,41,0.00,,,-99.99,Custom,2013-09-11 00:00:00,
2013-09-10 17:06:00,82.2,56.2,29.77,SE,135,2.0,5.0,41,0.00,,,-99.99,Custom,2013-09-11 00:06:00,
2013-09-10 17:10:00,81.8,56.5,29.77,SE,135,3.0,7.0,42,0.00,,,-99.99,Custom,2013-09-11 00:10:00,
2013-09-10 17:16:00,81.8,56.5,29.77,SE,135,3.0,7.0,42,0.00,,,-99.99,Custom,2013-09-11 00:16:00,
2013-09-10 17:20:00,81.3,56.0,29.77,SE,135,3.0,5.0,42,0.00,,,-99.99,Custom,2013-09-11 00:20:00,
2013-09-10 17:26:00,81.3,56.0,29.77,SE,135,3.0,5.0,42,0.00,,,-99.99,Custom,2013-09-11 00:26:00,
2013-09-10 17:30:00,80.8,56.2,29.78,SSE,158,3.0,6.0,43,0.00,,,-99.99,Custom,2013-09-11 00:30:00,
2013-09-10 17:36:00,80.8,56.2,29.78,SSE,158,3.0,6.0,43,0.00,,,-99.99,Custom,2013-09-11 00:36:00,
2013-09-10 17:40:00,80.4,56.5,29.78,ESE,113,3.0,5.0,44,0.00,,,-99.99,Custom,2013-09-11 00:40:00,
2013-09-10 17:41:00,80.4,56.5,29.78,ESE,113,3.0,5.0,44,0.00,,,-99.99,Custom,2013-09-11 00:41:00,
2013-09-10 17:45:00,80.1,56.2,29.78,ESE,113,2.0,6.0,44,0.00,,,-99.99,Custom,2013-09-11 00:45:00,
2013-09-10 17:46:00,80.4,56.5,29.78,ESE,113,3.0,5.0,44,0.00,,,-99.99,Custom,2013-09-11 00:46:00,
2013-09-10 17:51:00,80.1,56.2,29.78,ESE,113,2.0,6.0,44,0.00,,,-99.99,Custom,2013-09-11 00:51:00,
2013-09-10 17:55:00,79.3,56.1,29.79,SE,135,3.0,6.0,45,0.00,,,-99.99,Custom,2013-09-11 00:55:00,
2013-09-10 18:00:00,79.1,56.0,29.79,ESE,113,3.0,6.0,45,0.00,,,-99.99,Custom,2013-09-11 01:00:00,
2013-09-10 18:01:00,79.3,56.1,29.79,SE,135,3.0,6.0,45,0.00,,,-99.99,Custom,2013-09-11 01:01:00,
2013-09-10 18:05:00,78.7,56.2,29.79,SSW,203,3.0,6.0,46,0.00,,,-99.99,Custom,2013-09-11 01:05:00,
2013-09-10 18:11:00,78.7,56.2,29.79,SSW,203,3.0,6.0,46,0.00,,,-99.99,Custom,2013-09-11 01:11:00,
2013-09-10 18:15:00,78.1,56.3,29.79,SE,135,2.0,5.0,47,0.00,,,-99.99,Custom,2013-09-11 01:15:00,
2013-09-10 18:21:00,78.1,56.3,29.79,SE,135,2.0,5.0,47,0.00,,,-99.99,Custom,2013-09-11 01:21:00,
2013-09-10 18:25:00,77.4,56.2,29.80,East,90,2.0,4.0,48,0.00,,,-99.99,Custom,2013-09-11 01:25:00,
2013-09-10 18:26:00,77.4,56.2,29.80,East,90,2.0,4.0,48,0.00,,,-99.99,Custom,2013-09-11 01:26:00,
2013-09-10 18:30:00,77.1,55.9,29.80,South,180,2.0,5.0,48,0.00,,,-99.99,Custom,2013-09-11 01:30:00,
2013-09-10 18:36:00,77.1,55.9,29.80,South,180,2.0,5.0,48,0.00,,,-99.99,Custom,2013-09-11 01:36:00,
2013-09-10 18:40:00,76.4,55.8,29.80,SSE,158,2.0,6.0,49,0.00,,,-99.99,Custom,2013-09-11 01:40:00,
2013-09-10 18:41:00,76.4,55.8,29.80,SSE,158,2.0,6.0,49,0.00,,,-99.99,Custom,2013-09-11 01:41:00,
2013-09-10 18:45:00,76.1,56.1,29.80,SSE,158,3.0,6.0,50,0.00,,,-99.99,Custom,2013-09-11 01:45:00,
2013-09-10 18:51:00,76.1,56.1,29.80,SSE,158,3.0,6.0,50,0.00,,,-99.99,Custom,2013-09-11 01:51:00,
2013-09-10 18:55:00,75.2,55.8,29.81,ESE,113,2.0,4.0,51,0.00,,,-99.99,Custom,2013-09-11 01:55:00,
2013-09-10 19:01:00,75.2,55.8,29.81,ESE,113,2.0,4.0,51,0.00,,,-99.99,Custom,2013-09-11 02:01:00,
2013-09-10 19:05:00,74.3,56.1,29.81,ENE,68,2.0,4.0,53,0.00,,,-99.99,Custom,2013-09-11 02:05:00,
2013-09-10 19:11:00,74.3,56.1,29.81,ENE,68,2.0,4.0,53,0.00,,,-99.99,Custom,2013-09-11 02:11:00,
2013-09-10 19:15:00,73.5,55.9,29.81,East,90,2.0,5.0,54,0.00,,,-99.99,Custom,2013-09-11 02:15:00,
2013-09-10 19:21:00,73.5,55.9,29.81,East,90,2.0,5.0,54,0.00,,,-99.99,Custom,2013-09-11 02:21:00,
2013-09-10 19:25:00,72.6,56.0,29.82,East,90,2.0,4.0,56,0.00,,,-99.99,Custom,2013-09-11 02:25:00,
2013-09-10 19:30:00,72.3,55.7,29.82,ESE,113,1.0,2.0,56,0.00,,,-99.99,Custom,2013-09-11 02:30:00,
2013-09-10 19:31:00,72.6,56.0,29.82,East,90,2.0,4.0,56,0.00,,,-99.99,Custom,2013-09-11 02:31:00,
2013-09-10 19:35:00,71.9,55.9,29.82,ESE,113,1.0,3.0,57,0.00,,,-99.99,Custom,2013-09-11 02:35:00,
2013-09-10 19:36:00,72.3,55.7,29.82,ESE,113,1.0,2.0,56,0.00,,,-99.99,Custom,2013-09-11 02:36:00,
2013-09-10 19:45:00,71.1,55.6,29.83,SSE,158,2.0,4.0,58,0.00,,,-99.99,Custom,2013-09-11 02:45:00,
2013-09-10 19:46:00,71.1,55.6,29.83,SSE,158,2.0,4.0,58,0.00,,,-99.99,Custom,2013-09-11 02:46:00,
2013-09-10 19:50:00,70.6,55.6,29.83,SE,135,2.0,3.0,59,0.00,,,-99.99,Custom,2013-09-11 02:50:00,
2013-09-10 19:56:00,70.6,55.6,29.83,SE,135,2.0,3.0,59,0.00,,,-99.99,Custom,2013-09-11 02:56:00,
2013-09-10 20:00:00,69.7,55.2,29.83,SSW,203,1.0,5.0,60,0.00,,,-99.99,Custom,2013-09-11 03:00:00,
2013-09-10 20:06:00,69.7,55.2,29.83,SSW,203,1.0,5.0,60,0.00,,,-99.99,Custom,2013-09-11 03:06:00,
2013-09-10 20:10:00,69.1,55.1,29.84,SSE,158,1.0,4.0,61,0.00,,,-99.99,Custom,2013-09-11 03:10:00,
2013-09-10 20:16:00,69.1,55.1,29.84,SSE,158,1.0,4.0,61,0.00,,,-99.99,Custom,2013-09-11 03:16:00,
2013-09-10 20:20:00,68.6,55.1,29.84,East,90,1.0,7.0,62,0.00,,,-99.99,Custom,2013-09-11 03:20:00,
2013-09-10 20:26:00,68.6,55.1,29.84,East,90,1.0,7.0,62,0.00,,,-99.99,Custom,2013-09-11 03:26:00,
2013-09-10 20:30:00,67.9,55.3,29.85,SSE,158,1.0,6.0,64,0.00,,,-99.99,Custom,2013-09-11 03:30:00,
2013-09-10 20:37:00,67.9,55.3,29.85,SSE,158,1.0,6.0,64,0.00,,,-99.99,Custom,2013-09-11 03:37:00,
2013-09-10 20:40:00,67.2,55.1,29.85,SE,135,1.0,5.0,65,0.00,,,-99.99,Custom,2013-09-11 03:40:00,
2013-09-10 20:46:00,67.2,55.1,29.85,SE,135,1.0,5.0,65,0.00,,,-99.99,Custom,2013-09-11 03:46:00,
2013-09-10 20:50:00,66.8,55.1,29.85,SE,135,1.0,4.0,66,0.00,,,-99.99,Custom,2013-09-11 03:50:00,
2013-09-10 20:57:00,66.8,55.1,29.85,SE,135,1.0,4.0,66,0.00,,,-99.99,Custom,2013-09-11 03:57:00,
2013-09-10 21:00:00,66.4,54.3,29.85,SE,135,0.0,2.0,65,0.00,,,-99.99,Custom,2013-09-11 04:00:00,
2013-09-10 21:06:00,66.4,54.3,29.85,SE,135,0.0,2.0,65,0.00,,,-99.99,Custom,2013-09-11 04:06:00,
2013-09-10 21:10:00,66.0,54.7,29.85,SE,135,1.0,4.0,67,0.00,,,-99.99,Custom,2013-09-11 04:10:00,
2013-09-10 21:17:00,66.0,54.7,29.85,SE,135,1.0,4.0,67,0.00,,,-99.99,Custom,2013-09-11 04:17:00,
2013-09-10 21:20:00,65.7,54.5,29.85,South,180,0.0,3.0,67,0.00,,,-99.99,Custom,2013-09-11 04:20:00,
2013-09-10 21:25:00,65.5,54.7,29.85,ESE,113,1.0,5.0,68,0.00,,,-99.99,Custom,2013-09-11 04:25:00,
2013-09-10 21:26:00,65.7,54.5,29.85,South,180,0.0,3.0,67,0.00,,,-99.99,Custom,2013-09-11 04:26:00,
2013-09-10 21:30:00,65.3,54.5,29.86,SSE,158,0.0,2.0,68,0.00,,,-99.99,Custom,2013-09-11 04:30:00,
2013-09-10 21:35:00,65.2,54.4,29.86,SSE,158,0.0,3.0,68,0.00,,,-99.99,Custom,2013-09-11 04:35:00,
2013-09-10 21:36:00,65.3,54.5,29.86,SSE,158,0.0,2.0,68,0.00,,,-99.99,Custom,2013-09-11 04:36:00,
2013-09-10 21:40:00,65.1,54.7,29.86,SE,135,1.0,4.0,69,0.00,,,-99.99,Custom,2013-09-11 04:40:00,
2013-09-10 21:42:00,65.2,54.4,29.86,SSE,158,0.0,3.0,68,0.00,,,-99.99,Custom,2013-09-11 04:42:00,
2013-09-10 21:50:00,64.8,54.0,29.86,SSE,158,1.0,4.0,68,0.00,,,-99.99,Custom,2013-09-11 04:50:00,
2013-09-10 21:56:00,64.8,54.0,29.86,SSE,158,1.0,4.0,68,0.00,,,-99.99,Custom,2013-09-11 04:56:00,
2013-09-10 22:00:00,64.4,54.0,29.87,SE,135,1.0,5.0,69,0.00,,,-99.99,Custom,2013-09-11 05:00:00,
2013-09-10 22:07:00,64.4,54.0,29.87,SE,135,1.0,5.0,69,0.00,,,-99.99,Custom,2013-09-11 05:07:00,
2013-09-10 22:10:00,64.1,54.1,29.87,SE,135,1.0,4.0,70,0.00,,,-99.99,Custom,2013-09-11 05:10:00,
2013-09-10 22:16:00,64.1,54.1,29.87,SE,135,1.0,4.0,70,0.00,,,-99.99,Custom,2013-09-11 05:16:00,
2013-09-10 22:20:00,63.8,53.8,29.87,SSE,158,1.0,4.0,70,0.00,,,-99.99,Custom,2013-09-11 05:20:00,
2013-09-10 22:25:00,63.7,53.4,29.87,SSE,158,1.0,3.0,69,0.00,,,-99.99,Custom,2013-09-11 05:25:00,
2013-09-10 22:26:00,63.8,53.8,29.87,SSE,158,1.0,4.0,70,0.00,,,-99.99,Custom,2013-09-11 05:26:00,
2013-09-10 22:30:00,63.5,53.2,29.87,SSE,158,1.0,4.0,69,0.00,,,-99.99,Custom,2013-09-11 05:30:00,
2013-09-10 22:36:00,63.5,53.2,29.87,SSE,158,1.0,4.0,69,0.00,,,-99.99,Custom,2013-09-11 05:36:00,
2013-09-10 22:40:00,63.2,53.3,29.87,SE,135,1.0,4.0,70,0.00,,,-99.99,Custom,2013-09-11 05:40:00,
2013-09-10 22:46:00,63.2,53.3,29.87,SE,135,1.0,4.0,70,0.00,,,-99.99,Custom,2013-09-11 05:46:00,
2013-09-10 22:50:00,62.9,53.0,29.88,SSW,203,1.0,3.0,70,0.00,,,-99.99,Custom,2013-09-11 05:50:00,
2013-09-10 22:56:00,62.9,53.0,29.88,SSW,203,1.0,3.0,70,0.00,,,-99.99,Custom,2013-09-11 05:56:00,
2013-09-10 23:00:00,62.7,53.2,29.88,SE,135,1.0,3.0,71,0.00,,,-99.99,Custom,2013-09-11 06:00:00,
2013-09-10 23:06:00,62.7,53.2,29.88,SE,135,1.0,3.0,71,0.00,,,-99.99,Custom,2013-09-11 06:06:00,
2013-09-10 23:10:00,62.5,53.0,29.88,SE,135,1.0,3.0,71,0.00,,,-99.99,Custom,2013-09-11 06:10:00,
2013-09-10 23:15:00,62.3,52.4,29.88,SSE,158,1.0,4.0,70,0.00,,,-99.99,Custom,2013-09-11 06:15:00,
2013-09-10 23:16:00,62.5,53.0,29.88,SE,135,1.0,3.0,71,0.00,,,-99.99,Custom,2013-09-11 06:16:00,
2013-09-10 23:20:00,62.2,52.3,29.88,SSE,158,0.0,1.0,70,0.00,,,-99.99,Custom,2013-09-11 06:20:00,
2013-09-10 23:26:00,62.2,52.3,29.88,SSE,158,0.0,1.0,70,0.00,,,-99.99,Custom,2013-09-11 06:26:00,
2013-09-10 23:30:00,62.1,53.0,29.89,SSE,158,0.0,1.0,72,0.00,,,-99.99,Custom,2013-09-11 06:30:00,
2013-09-10 23:36:00,62.1,53.0,29.89,SSE,158,0.0,1.0,72,0.00,,,-99.99,Custom,2013-09-11 06:36:00,
2013-09-10 23:40:00,61.9,52.0,29.88,SSE,158,0.0,2.0,70,0.00,,,-99.99,Custom,2013-09-11 06:40:00,
2013-09-10 23:46:00,61.9,52.0,29.88,SSE,158,0.0,2.0,70,0.00,,,-99.99,Custom,2013-09-11 06:46:00,
2013-09-10 23:50:00,61.6,52.1,29.88,SSE,158,0.0,0.0,71,0.00,,,-99.99,Custom,2013-09-11 06:50:00,
2013-09-10 23:56:00,61.6,52.1,29.88,SSE,158,0.0,0.0,71,0.00,,,-99.99,Custom,2013-09-11 06:56:00,